x

Isle Of Shoals, Nh (iosn3) Weather Station

4:00pm - Tue 26th Sep 2017 All times are EDT. -4 hours from GMT.

  • Wind
    14mph, 14mph gusts
  • Air Temp 73°f
  • Sea Pressure 1014.7mb
  • Isle Of Shoals, Nh
  • Isle Of Shoals, Nh

More Historic Weather Station data

Upgrade to MSW Pro to gain access to the past 30 days of data for over 8000 Wavebouys and Weather Stations around the globe.

Join

Comparision Forecast

View Surf forecast
   
Tue 09/26 4:00pm 14 14 mph 1014.7mb 73f
3:00pm 16 16 mph 1015mb 72f
2:00pm 13 13 mph 1015.3mb 68f
1:00pm 11 13 mph 1016mb 65f
12:00pm 10 11 mph 1016.5mb 66f
11:00am 6 6 mph 1016.9mb 64f
10:00am 8 8 mph 1017mb 62f
9:00am 11 11 mph 1017.2mb 62f
8:00am 8 8 mph 1016.9mb 62f
7:00am  -  0 mph 1016.8mb 63f
6:00am 6 6 mph 1016.6mb 63f
5:00am 5 6 mph 1016.5mb 63f
4:00am 6 6 mph 1016.7mb 63f
3:00am 7 8 mph 1017.2mb 62f
2:00am 7 7 mph 1017.1mb 63f
1:00am 2 2 mph 1017.4mb 63f
12:00am 6 7 mph 1017.4mb 64f
Mon 09/25 11:00pm 10 11 mph 1017.7mb 65f
10:00pm 7 8 mph 1017.8mb 65f
9:00pm 9 10 mph 1018mb 64f
8:00pm 13 15 mph 1017.8mb 65f
7:00pm 17 17 mph 1017.3mb 68f
6:00pm 17 17 mph 1017.3mb 70f
5:00pm 15
mph
- -
4:00pm 13 13 mph 1017.7mb 68f
3:00pm 6 7 mph 1017.9mb 69f
2:00pm 6 6 mph 1018.3mb 69f
1:00pm 6 6 mph 1018.6mb 67f
12:00pm 6 6 mph 1018.8mb 66f
11:00am 7 7 mph 1019mb 67f
10:00am 7 7 mph 1018.9mb 69f
9:00am 8 8 mph 1018.3mb 68f
8:00am 3 3 mph 1018.2mb 69f
7:00am  -  1 mph 1018mb 66f
6:00am 3 3 mph 1017.2mb 67f
5:00am 3 5 mph 1016.8mb 67f
4:00am 5 5 mph 1016.5mb 68f
3:00am 3 3 mph 1016.4mb 69f
2:00am 2 2 mph 1016.6mb 70f
1:00am 3 3 mph 1016.7mb 71f
12:00am 11 13 mph 1016.8mb 69f
Sun 09/24 11:00pm 14 15 mph 1016.8mb 70f
10:00pm 13 13 mph 1016.6mb 70f
9:00pm 13 13 mph 1016.5mb 71f
8:00pm 15 16 mph 1016.3mb 74f
7:00pm 17 17 mph 1016mb 73f
6:00pm 15 16 mph 1015.8mb 73f
5:00pm 18 18 mph 1015.8mb 69f
4:00pm 14 15 mph 1016mb 70f
3:00pm 8 8 mph 1016.4mb 74f
2:00pm 6 6 mph 1016.8mb 72f
1:00pm 3 3 mph 1017.2mb 72f
12:00pm 1 2 mph 1017.5mb 73f
11:00am 3 3 mph 1017.6mb 73f
10:00am 6 7 mph 1017.6mb 70f
9:00am 10 10 mph 1017.9mb 68f
8:00am 5 6 mph 1017.6mb 68f
7:00am 8 9 mph 1017.5mb 66f
6:00am 6 7 mph 1017mb 66f
5:00am 10 10 mph 1016.7mb 66f
4:00am 8 8 mph 1016.4mb 64f
3:00am 6 6 mph 1016.1mb 62f
2:00am 9 9 mph 1016.2mb 64f
1:00am 8 9 mph 1016.3mb 64f
12:00am 8 8 mph 1016.4mb 63f
Sat 09/23 11:00pm 7 7 mph 1016.8mb 63f
10:00pm 8 8 mph 1016.7mb 63f
9:00pm 6 7 mph 1016.4mb 62f
8:00pm 5 5 mph 1016.3mb 62f
7:00pm 3 3 mph 1016mb 62f
6:00pm 5 5 mph 1015.9mb 63f
5:00pm 3 5 mph 1015.8mb 64f
4:00pm 3 5 mph 1016mb 64f
3:00pm 3 5 mph 1016.3mb 63f
2:00pm 3 5 mph 1016.6mb 63f
1:00pm 11 11 mph 1016.3mb 62f
12:00pm 13 14 mph 1016.7mb 64f
11:00am 10 13 mph 1016.9mb 64f
10:00am 14 16 mph 1017.1mb 64f
9:00am 16 20 mph 1016.7mb 63f
8:00am 14 16 mph 1016.2mb 62f
7:00am 15 17 mph 1016mb 63f
6:00am 10 11 mph 1015.6mb 62f
5:00am 14 16 mph 1015.8mb 62f
4:00am 16 18 mph 1015.7mb 61f
3:00am 20 23 mph 1016.1mb 62f
2:00am 23 25 mph 1016.1mb 62f
1:00am 20 22 mph 1016.2mb 61f
12:00am 20 22 mph 1016.6mb 61f
Fri 09/22 11:00pm 17 18 mph 1017mb 61f
10:00pm 21 23 mph 1016.4mb 61f